sensor_id;sensor_type;location;lat;lon;timestamp;P1;durP1;ratioP1;P2;durP2;ratioP2
16967;SDS011;64862;54.398;10.126;2023-01-15T00:09:55;11.18;;;1.52;;
16967;SDS011;64862;54.398;10.126;2023-01-15T00:19:58;12.57;;;1.40;;
16967;SDS011;64862;54.398;10.126;2023-01-15T00:30:01;12.68;;;1.33;;
16967;SDS011;64862;54.398;10.126;2023-01-15T00:40:04;12.57;;;1.45;;
16967;SDS011;64862;54.398;10.126;2023-01-15T00:50:08;13.38;;;1.38;;
16967;SDS011;64862;54.398;10.126;2023-01-15T01:00:12;9.93;;;1.30;;
16967;SDS011;64862;54.398;10.126;2023-01-15T01:10:16;10.43;;;1.38;;
16967;SDS011;64862;54.398;10.126;2023-01-15T01:20:18;11.68;;;1.35;;
16967;SDS011;64862;54.398;10.126;2023-01-15T01:30:22;12.13;;;1.35;;
16967;SDS011;64862;54.398;10.126;2023-01-15T01:40:26;7.40;;;1.20;;
16967;SDS011;64862;54.398;10.126;2023-01-15T01:50:29;9.27;;;1.20;;
16967;SDS011;64862;54.398;10.126;2023-01-15T02:00:34;12.55;;;1.20;;
16967;SDS011;64862;54.398;10.126;2023-01-15T02:10:41;6.38;;;1.17;;
16967;SDS011;64862;54.398;10.126;2023-01-15T02:20:53;12.10;;;1.15;;
16967;SDS011;64862;54.398;10.126;2023-01-15T02:31:03;9.00;;;1.23;;
16967;SDS011;64862;54.398;10.126;2023-01-15T02:41:10;10.98;;;1.27;;
16967;SDS011;64862;54.398;10.126;2023-01-15T02:51:21;9.05;;;1.30;;
16967;SDS011;64862;54.398;10.126;2023-01-15T03:01:28;9.07;;;1.08;;
16967;SDS011;64862;54.398;10.126;2023-01-15T03:11:41;9.82;;;1.23;;
16967;SDS011;64862;54.398;10.126;2023-01-15T03:21:50;8.88;;;1.20;;
16967;SDS011;64862;54.398;10.126;2023-01-15T03:31:58;9.95;;;1.42;;
16967;SDS011;64862;54.398;10.126;2023-01-15T03:42:04;10.45;;;1.30;;
16967;SDS011;64862;54.398;10.126;2023-01-15T03:52:21;10.98;;;1.42;;
16967;SDS011;64862;54.398;10.126;2023-01-15T04:02:30;11.57;;;1.30;;
16967;SDS011;64862;54.398;10.126;2023-01-15T04:12:33;13.77;;;1.52;;
16967;SDS011;64862;54.398;10.126;2023-01-15T04:22:38;8.75;;;1.25;;
16967;SDS011;64862;54.398;10.126;2023-01-15T04:32:41;14.95;;;1.33;;
16967;SDS011;64862;54.398;10.126;2023-01-15T04:42:43;8.77;;;1.60;;
16967;SDS011;64862;54.398;10.126;2023-01-15T05:03:06;13.38;;;1.58;;
16967;SDS011;64862;54.398;10.126;2023-01-15T05:13:09;13.38;;;1.55;;
16967;SDS011;64862;54.398;10.126;2023-01-15T05:23:13;14.70;;;1.60;;
16967;SDS011;64862;54.398;10.126;2023-01-15T05:33:17;13.30;;;1.67;;
16967;SDS011;64862;54.398;10.126;2023-01-15T05:43:19;7.43;;;1.60;;
16967;SDS011;64862;54.398;10.126;2023-01-15T05:53:22;13.27;;;1.92;;
16967;SDS011;64862;54.398;10.126;2023-01-15T06:03:25;13.70;;;1.50;;
16967;SDS011;64862;54.398;10.126;2023-01-15T06:13:28;13.05;;;2.28;;
16967;SDS011;64862;54.398;10.126;2023-01-15T06:23:34;12.50;;;1.60;;
16967;SDS011;64862;54.398;10.126;2023-01-15T06:33:38;15.25;;;1.73;;
16967;SDS011;64862;54.398;10.126;2023-01-15T06:43:40;14.65;;;2.33;;
16967;SDS011;64862;54.398;10.126;2023-01-15T07:04:03;12.27;;;1.77;;
16967;SDS011;64862;54.398;10.126;2023-01-15T07:14:06;17.63;;;2.40;;
16967;SDS011;64862;54.398;10.126;2023-01-15T07:24:08;14.75;;;1.52;;
16967;SDS011;64862;54.398;10.126;2023-01-15T07:34:13;14.35;;;2.22;;
16967;SDS011;64862;54.398;10.126;2023-01-15T07:44:15;16.40;;;2.00;;
16967;SDS011;64862;54.398;10.126;2023-01-15T07:54:35;17.00;;;1.85;;
16967;SDS011;64862;54.398;10.126;2023-01-15T08:04:37;10.65;;;1.48;;
16967;SDS011;64862;54.398;10.126;2023-01-15T08:14:41;15.52;;;1.90;;
16967;SDS011;64862;54.398;10.126;2023-01-15T08:25:00;9.95;;;1.55;;
16967;SDS011;64862;54.398;10.126;2023-01-15T08:35:04;12.27;;;1.63;;
16967;SDS011;64862;54.398;10.126;2023-01-15T08:45:07;19.00;;;2.15;;
16967;SDS011;64862;54.398;10.126;2023-01-15T08:55:11;12.25;;;1.70;;
16967;SDS011;64862;54.398;10.126;2023-01-15T09:05:15;10.50;;;1.90;;
16967;SDS011;64862;54.398;10.126;2023-01-15T09:15:19;11.90;;;1.38;;
16967;SDS011;64862;54.398;10.126;2023-01-15T09:25:21;10.90;;;1.95;;
16967;SDS011;64862;54.398;10.126;2023-01-15T09:35:25;10.57;;;1.50;;
16967;SDS011;64862;54.398;10.126;2023-01-15T09:45:27;12.40;;;1.67;;
16967;SDS011;64862;54.398;10.126;2023-01-15T09:55:39;9.00;;;1.55;;
16967;SDS011;64862;54.398;10.126;2023-01-15T10:05:46;13.07;;;2.17;;
16967;SDS011;64862;54.398;10.126;2023-01-15T10:15:59;10.85;;;1.48;;
16967;SDS011;64862;54.398;10.126;2023-01-15T10:26:03;9.15;;;1.23;;
16967;SDS011;64862;54.398;10.126;2023-01-15T10:36:18;9.43;;;1.98;;
16967;SDS011;64862;54.398;10.126;2023-01-15T10:46:26;9.90;;;1.65;;
16967;SDS011;64862;54.398;10.126;2023-01-15T10:56:34;12.15;;;1.63;;
16967;SDS011;64862;54.398;10.126;2023-01-15T11:06:41;8.60;;;1.30;;
16967;SDS011;64862;54.398;10.126;2023-01-15T11:16:44;9.07;;;1.48;;
16967;SDS011;64862;54.398;10.126;2023-01-15T11:27:04;9.95;;;1.30;;
16967;SDS011;64862;54.398;10.126;2023-01-15T11:37:09;8.77;;;1.27;;
16967;SDS011;64862;54.398;10.126;2023-01-15T11:47:12;11.27;;;1.33;;
16967;SDS011;64862;54.398;10.126;2023-01-15T11:57:33;11.55;;;1.15;;
16967;SDS011;64862;54.398;10.126;2023-01-15T12:07:38;6.70;;;1.30;;
16967;SDS011;64862;54.398;10.126;2023-01-15T12:17:56;8.00;;;1.00;;
16967;SDS011;64862;54.398;10.126;2023-01-15T12:28:16;12.07;;;1.50;;
16967;SDS011;64862;54.398;10.126;2023-01-15T12:38:28;8.32;;;1.10;;
16967;SDS011;64862;54.398;10.126;2023-01-15T12:48:43;9.63;;;1.17;;
16967;SDS011;64862;54.398;10.126;2023-01-15T12:58:53;10.83;;;1.67;;
16967;SDS011;64862;54.398;10.126;2023-01-15T13:08:59;6.25;;;1.27;;
16967;SDS011;64862;54.398;10.126;2023-01-15T13:19:13;8.20;;;1.25;;
16967;SDS011;64862;54.398;10.126;2023-01-15T13:29:25;4.68;;;0.90;;
16967;SDS011;64862;54.398;10.126;2023-01-15T13:39:36;10.00;;;1.35;;
16967;SDS011;64862;54.398;10.126;2023-01-15T13:49:44;6.18;;;0.95;;
16967;SDS011;64862;54.398;10.126;2023-01-15T13:59:50;3.83;;;0.80;;
16967;SDS011;64862;54.398;10.126;2023-01-15T14:09:52;8.48;;;1.20;;
16967;SDS011;64862;54.398;10.126;2023-01-15T14:20:01;8.15;;;1.20;;
16967;SDS011;64862;54.398;10.126;2023-01-15T14:30:20;6.40;;;1.00;;
16967;SDS011;64862;54.398;10.126;2023-01-15T14:40:33;5.90;;;1.08;;
16967;SDS011;64862;54.398;10.126;2023-01-15T14:50:36;6.00;;;1.10;;
16967;SDS011;64862;54.398;10.126;2023-01-15T15:00:41;7.85;;;1.33;;
16967;SDS011;64862;54.398;10.126;2023-01-15T15:10:49;7.82;;;1.25;;
16967;SDS011;64862;54.398;10.126;2023-01-15T15:21:00;10.45;;;1.55;;
16967;SDS011;64862;54.398;10.126;2023-01-15T15:31:07;7.57;;;1.08;;
16967;SDS011;64862;54.398;10.126;2023-01-15T15:41:11;4.45;;;0.82;;
16967;SDS011;64862;54.398;10.126;2023-01-15T15:51:27;3.13;;;0.90;;
16967;SDS011;64862;54.398;10.126;2023-01-15T16:01:36;4.78;;;1.20;;
16967;SDS011;64862;54.398;10.126;2023-01-15T16:11:39;3.78;;;0.82;;
16967;SDS011;64862;54.398;10.126;2023-01-15T16:21:43;5.63;;;1.05;;
16967;SDS011;64862;54.398;10.126;2023-01-15T16:31:46;14.98;;;1.30;;
16967;SDS011;64862;54.398;10.126;2023-01-15T16:41:49;10.02;;;1.27;;
16967;SDS011;64862;54.398;10.126;2023-01-15T16:51:54;14.77;;;1.50;;
16967;SDS011;64862;54.398;10.126;2023-01-15T17:02:03;14.10;;;1.73;;
16967;SDS011;64862;54.398;10.126;2023-01-15T17:12:16;10.45;;;1.95;;
16967;SDS011;64862;54.398;10.126;2023-01-15T17:22:27;21.08;;;2.85;;
16967;SDS011;64862;54.398;10.126;2023-01-15T17:32:31;19.00;;;2.10;;
16967;SDS011;64862;54.398;10.126;2023-01-15T17:42:37;18.20;;;2.30;;
16967;SDS011;64862;54.398;10.126;2023-01-15T17:52:39;15.52;;;2.30;;
16967;SDS011;64862;54.398;10.126;2023-01-15T18:02:44;23.00;;;2.70;;
16967;SDS011;64862;54.398;10.126;2023-01-15T18:13:04;17.33;;;2.45;;
16967;SDS011;64862;54.398;10.126;2023-01-15T18:23:08;19.80;;;2.38;;
16967;SDS011;64862;54.398;10.126;2023-01-15T18:33:10;16.23;;;2.15;;
16967;SDS011;64862;54.398;10.126;2023-01-15T18:43:14;20.48;;;2.58;;
16967;SDS011;64862;54.398;10.126;2023-01-15T18:53:33;18.73;;;2.08;;
16967;SDS011;64862;54.398;10.126;2023-01-15T19:03:36;22.63;;;3.00;;
16967;SDS011;64862;54.398;10.126;2023-01-15T19:13:38;19.70;;;2.53;;
16967;SDS011;64862;54.398;10.126;2023-01-15T19:23:42;25.70;;;2.70;;
16967;SDS011;64862;54.398;10.126;2023-01-15T19:33:43;19.67;;;2.30;;
16967;SDS011;64862;54.398;10.126;2023-01-15T19:43:47;30.20;;;3.58;;
16967;SDS011;64862;54.398;10.126;2023-01-15T19:54:06;24.50;;;3.03;;
16967;SDS011;64862;54.398;10.126;2023-01-15T20:04:10;28.52;;;4.25;;
16967;SDS011;64862;54.398;10.126;2023-01-15T20:14:13;25.27;;;2.80;;
16967;SDS011;64862;54.398;10.126;2023-01-15T20:24:16;24.02;;;2.85;;
16967;SDS011;64862;54.398;10.126;2023-01-15T20:34:18;23.38;;;2.63;;
16967;SDS011;64862;54.398;10.126;2023-01-15T20:44:22;35.38;;;3.50;;
16967;SDS011;64862;54.398;10.126;2023-01-15T20:54:41;24.00;;;2.90;;
16967;SDS011;64862;54.398;10.126;2023-01-15T21:04:44;15.98;;;1.70;;
16967;SDS011;64862;54.398;10.126;2023-01-15T21:14:46;12.98;;;1.55;;
16967;SDS011;64862;54.398;10.126;2023-01-15T21:24:50;17.88;;;2.22;;
16967;SDS011;64862;54.398;10.126;2023-01-15T21:34:52;21.60;;;2.70;;
16967;SDS011;64862;54.398;10.126;2023-01-15T21:44:55;23.52;;;2.35;;
16967;SDS011;64862;54.398;10.126;2023-01-15T21:54:57;20.52;;;2.65;;
16967;SDS011;64862;54.398;10.126;2023-01-15T22:05:00;16.50;;;2.10;;
16967;SDS011;64862;54.398;10.126;2023-01-15T22:15:03;20.58;;;2.75;;
16967;SDS011;64862;54.398;10.126;2023-01-15T22:25:07;16.23;;;2.05;;
16967;SDS011;64862;54.398;10.126;2023-01-15T22:35:12;14.63;;;1.80;;
16967;SDS011;64862;54.398;10.126;2023-01-15T22:45:15;14.43;;;1.85;;
16967;SDS011;64862;54.398;10.126;2023-01-15T22:55:17;12.70;;;1.80;;
16967;SDS011;64862;54.398;10.126;2023-01-15T23:05:21;15.70;;;1.70;;
16967;SDS011;64862;54.398;10.126;2023-01-15T23:15:24;13.05;;;1.70;;
16967;SDS011;64862;54.398;10.126;2023-01-15T23:25:27;10.80;;;1.63;;
16967;SDS011;64862;54.398;10.126;2023-01-15T23:35:29;10.00;;;1.63;;
16967;SDS011;64862;54.398;10.126;2023-01-15T23:45:35;11.50;;;1.55;;
16967;SDS011;64862;54.398;10.126;2023-01-15T23:55:55;9.60;;;1.83;;
